createdAt,value
2019-02-26T00:01:46.183Z,6.40
2019-02-26T00:04:13.329Z,6.40
2019-02-26T00:06:42.466Z,6.40
2019-02-26T00:09:13.237Z,6.40
2019-02-26T00:11:42.295Z,6.40
2019-02-26T00:14:15.523Z,6.40
2019-02-26T00:16:42.415Z,6.30
2019-02-26T00:19:14.394Z,6.30
2019-02-26T00:21:45.678Z,6.20
2019-02-26T00:24:14.625Z,6.10
2019-02-26T00:26:45.673Z,6.10
2019-02-26T00:29:14.765Z,6.10
2019-02-26T00:31:46.090Z,6.10
2019-02-26T00:34:16.872Z,6.00
2019-02-26T00:36:45.377Z,5.90
2019-02-26T00:39:14.607Z,5.90
2019-02-26T00:41:43.713Z,5.90
2019-02-26T00:44:12.777Z,5.90
2019-02-26T00:46:41.736Z,5.90
2019-02-26T00:49:10.780Z,5.80
2019-02-26T00:51:41.738Z,5.80
2019-02-26T00:54:11.011Z,5.80
2019-02-26T00:56:41.110Z,5.80
2019-02-26T00:59:10.429Z,5.80
2019-02-26T01:01:39.630Z,5.80
2019-02-26T01:04:08.612Z,5.80
2019-02-26T01:06:39.076Z,5.70
2019-02-26T01:09:11.242Z,5.70
2019-02-26T01:11:40.481Z,5.70
2019-02-26T01:14:09.692Z,5.70
2019-02-26T01:16:39.449Z,5.70
2019-02-26T01:19:10.763Z,5.70
2019-02-26T01:21:39.688Z,5.60
2019-02-26T01:24:08.769Z,5.60
2019-02-26T01:26:37.693Z,5.60
2019-02-26T01:29:16.384Z,5.60
2019-02-26T01:31:44.600Z,5.40
2019-02-26T01:34:15.458Z,5.40
2019-02-26T01:36:44.975Z,5.40
2019-02-26T01:39:18.612Z,5.30
2019-02-26T01:41:47.916Z,5.30
2019-02-26T01:44:17.885Z,5.30
2019-02-26T01:46:47.062Z,5.30
2019-02-26T01:49:17.132Z,5.30
2019-02-26T01:51:47.969Z,5.30
2019-02-26T01:54:18.532Z,5.30
2019-02-26T01:56:48.133Z,5.20
2019-02-26T01:59:18.995Z,5.20
2019-02-26T02:01:51.393Z,5.20
2019-02-26T02:04:20.004Z,5.10
2019-02-26T02:06:49.029Z,5.10
2019-02-26T02:09:20.425Z,5.10
2019-02-26T02:11:50.612Z,5.10
2019-02-26T02:14:19.812Z,5.10
2019-02-26T02:16:49.056Z,5.10
2019-02-26T02:19:20.267Z,5.10
2019-02-26T02:21:49.406Z,5.10
2019-02-26T02:24:20.546Z,5.10
2019-02-26T02:26:55.354Z,5.10
2019-02-26T02:29:24.645Z,5.10
2019-02-26T02:31:54.863Z,5.10
2019-02-26T02:34:26.992Z,5.10
2019-02-26T02:37:00.431Z,5.10
2019-02-26T02:39:30.897Z,5.10
2019-02-26T02:42:01.915Z,5.10
2019-02-26T02:44:32.598Z,5.10
2019-02-26T02:47:03.703Z,5.10
2019-02-26T02:49:33.857Z,5.00
2019-02-26T02:52:04.289Z,5.00
2019-02-26T02:54:33.674Z,4.90
2019-02-26T02:57:04.844Z,4.90
2019-02-26T02:59:37.355Z,4.80
2019-02-26T03:02:04.795Z,4.70
2019-02-26T03:04:35.077Z,4.70
2019-02-26T03:07:04.185Z,4.70
2019-02-26T03:09:37.059Z,4.70
2019-02-26T03:12:04.185Z,4.60
2019-02-26T03:14:35.803Z,4.60
2019-02-26T03:17:06.426Z,4.50
2019-02-26T03:19:35.664Z,4.40
2019-02-26T03:22:07.290Z,4.40
2019-02-26T03:24:36.443Z,4.40
2019-02-26T03:27:05.625Z,4.40
2019-02-26T03:29:34.679Z,4.40
2019-02-26T03:32:03.598Z,4.40
2019-02-26T03:34:32.564Z,4.40
2019-02-26T03:37:03.881Z,4.40
2019-02-26T03:39:32.702Z,4.40
2019-02-26T03:42:02.081Z,4.40
2019-02-26T03:44:31.433Z,4.50
2019-02-26T03:47:00.431Z,4.50
2019-02-26T03:49:29.522Z,4.40
2019-02-26T03:52:00.131Z,4.40
2019-02-26T03:54:29.409Z,4.50
2019-02-26T03:56:58.411Z,4.50
2019-02-26T03:59:30.422Z,4.60
2019-02-26T04:01:59.560Z,4.60
2019-02-26T04:04:31.182Z,4.50
2019-02-26T04:07:01.453Z,4.50
2019-02-26T04:09:30.183Z,4.50
2019-02-26T04:11:59.117Z,4.50
2019-02-26T04:14:30.504Z,4.50
2019-02-26T04:17:01.494Z,4.50
2019-02-26T04:19:29.540Z,4.50
2019-02-26T04:22:26.585Z,4.50
2019-02-26T04:25:04.962Z,4.50
2019-02-26T04:27:47.335Z,4.40
2019-02-26T04:30:52.816Z,4.40
2019-02-26T04:33:41.469Z,4.40
2019-02-26T04:36:28.909Z,4.40
2019-02-26T04:39:28.252Z,4.30
2019-02-26T04:42:08.472Z,4.30
2019-02-26T04:45:05.871Z,4.30
2019-02-26T04:47:57.594Z,4.30
2019-02-26T04:50:28.686Z,4.30
2019-02-26T04:52:59.748Z,4.30
2019-02-26T04:55:29.787Z,4.30
2019-02-26T04:57:58.642Z,4.30
2019-02-26T05:00:29.916Z,4.30
2019-02-26T05:02:58.599Z,4.30
2019-02-26T05:05:31.014Z,4.30
2019-02-26T05:07:58.458Z,4.30
2019-02-26T05:10:29.738Z,4.30
2019-02-26T05:13:01.059Z,4.30
2019-02-26T05:15:32.490Z,4.30
2019-02-26T05:17:59.789Z,4.30
2019-02-26T05:20:31.264Z,4.30
2019-02-26T05:23:00.992Z,4.30
2019-02-26T05:25:31.531Z,4.30
2019-02-26T05:28:03.667Z,4.20
2019-02-26T05:30:31.827Z,4.20
2019-02-26T05:33:02.951Z,4.20
2019-02-26T05:35:31.847Z,4.20
2019-02-26T05:38:03.385Z,4.30
2019-02-26T05:40:31.447Z,4.30
2019-02-26T05:43:01.885Z,4.20
2019-02-26T05:45:33.059Z,4.20
2019-02-26T05:48:02.171Z,4.20
2019-02-26T05:50:34.680Z,4.20
2019-02-26T05:53:04.935Z,4.20
2019-02-26T05:55:32.771Z,4.10
2019-02-26T05:58:01.767Z,3.90
2019-02-26T06:00:33.333Z,3.90
2019-02-26T06:03:03.605Z,3.80
2019-02-26T06:05:32.955Z,3.80
2019-02-26T06:08:02.079Z,3.80
2019-02-26T06:10:32.621Z,3.80
2019-02-26T06:13:02.780Z,3.80
2019-02-26T06:15:34.187Z,3.80
2019-02-26T06:18:03.308Z,3.80
2019-02-26T06:20:34.531Z,3.80
2019-02-26T06:23:03.470Z,3.80
2019-02-26T06:25:32.630Z,3.70
2019-02-26T06:28:04.455Z,3.70
2019-02-26T06:30:32.541Z,3.70
2019-02-26T06:33:04.133Z,3.60
2019-02-26T06:35:33.684Z,3.50
2019-02-26T06:38:04.519Z,3.40
2019-02-26T06:40:36.731Z,3.10
2019-02-26T06:43:04.615Z,3.00
2019-02-26T06:45:35.178Z,3.10
2019-02-26T06:48:04.446Z,3.20
2019-02-26T06:50:34.095Z,3.30
2019-02-26T06:53:06.497Z,3.40
2019-02-26T06:55:35.261Z,3.40
2019-02-26T06:58:22.280Z,3.60
2019-02-26T07:00:55.134Z,3.60
2019-02-26T07:03:24.229Z,3.70
2019-02-26T07:05:53.301Z,3.70
2019-02-26T07:08:24.241Z,3.80
2019-02-26T07:10:53.080Z,3.90
2019-02-26T07:13:22.082Z,4.00
2019-02-26T07:15:51.170Z,4.10
2019-02-26T07:18:20.323Z,4.20
2019-02-26T07:20:52.041Z,4.20
2019-02-26T07:23:20.107Z,4.30
2019-02-26T07:25:49.279Z,4.30
2019-02-26T07:28:20.045Z,4.10
2019-02-26T07:30:49.031Z,4.00
2019-02-26T07:33:18.081Z,3.90
2019-02-26T07:35:47.038Z,4.00
2019-02-26T07:38:18.008Z,4.00
2019-02-26T07:40:46.797Z,4.20
2019-02-26T07:43:17.953Z,4.40
2019-02-26T07:45:46.584Z,4.60
2019-02-26T07:48:18.613Z,4.80
2019-02-26T07:50:48.352Z,5.00
2019-02-26T07:53:19.650Z,5.20
2019-02-26T07:55:47.909Z,5.30
2019-02-26T07:58:17.846Z,5.40
2019-02-26T08:00:49.515Z,5.60
2019-02-26T08:03:19.428Z,5.60
2019-02-26T08:05:48.752Z,5.70
2019-02-26T08:08:20.612Z,5.80
2019-02-26T08:10:50.626Z,5.90
2019-02-26T08:13:19.171Z,6.00
2019-02-26T08:15:48.126Z,6.20
2019-02-26T08:18:17.291Z,6.30
2019-02-26T08:20:46.417Z,6.40
2019-02-26T08:23:17.109Z,6.50
2019-02-26T08:25:46.588Z,6.60
2019-02-26T08:28:17.926Z,6.70
2019-02-26T08:30:47.385Z,6.70
2019-02-26T08:33:17.812Z,6.80
2019-02-26T08:35:46.965Z,6.90
2019-02-26T08:38:16.368Z,7.00
2019-02-26T08:40:45.759Z,7.10
2019-02-26T08:43:15.292Z,7.20
2019-02-26T08:45:44.345Z,7.30
2019-02-26T08:48:15.022Z,7.30
2019-02-26T08:50:46.204Z,7.40
2019-02-26T08:53:14.833Z,7.40
2019-02-26T08:55:43.800Z,7.50
2019-02-26T08:58:12.819Z,7.50
2019-02-26T09:00:41.857Z,7.60
2019-02-26T09:03:13.238Z,7.60
2019-02-26T09:05:41.777Z,7.70
2019-02-26T09:08:13.250Z,7.80
2019-02-26T09:10:43.742Z,7.80
2019-02-26T09:13:14.553Z,7.80
2019-02-26T09:15:43.433Z,7.90
2019-02-26T09:18:12.398Z,7.90
2019-02-26T09:20:41.413Z,8.00
2019-02-26T09:23:10.641Z,8.10
2019-02-26T09:25:39.777Z,8.10
2019-02-26T09:28:08.822Z,8.10
2019-02-26T09:30:38.859Z,8.20
2019-02-26T09:33:10.921Z,8.30
2019-02-26T09:35:39.252Z,8.30
2019-02-26T09:38:08.495Z,8.30
2019-02-26T09:40:37.446Z,8.40
2019-02-26T09:43:06.540Z,8.40
2019-02-26T09:45:35.516Z,8.50
2019-02-26T09:48:04.781Z,8.50
2019-02-26T09:50:36.725Z,8.60
2019-02-26T09:53:05.885Z,8.60
2019-02-26T09:55:39.640Z,8.70
2019-02-26T09:58:08.616Z,8.80
2019-02-26T10:00:37.699Z,8.90
2019-02-26T10:03:09.811Z,8.90
2019-02-26T10:05:37.616Z,9.00
2019-02-26T10:08:06.622Z,9.10
2019-02-26T10:10:39.173Z,9.20
2019-02-26T10:13:06.700Z,9.30
2019-02-26T10:15:37.386Z,9.40
2019-02-26T10:18:08.823Z,9.50
2019-02-26T10:20:37.116Z,9.60
2019-02-26T10:23:06.455Z,9.70
2019-02-26T10:25:38.541Z,9.70
2019-02-26T10:28:09.612Z,9.80
2019-02-26T10:30:40.971Z,9.90
2019-02-26T10:33:08.451Z,9.90
2019-02-26T10:35:39.703Z,9.90
2019-02-26T10:38:11.439Z,10.10
2019-02-26T10:40:50.546Z,10.10
2019-02-26T10:43:09.972Z,10.10
2019-02-26T10:45:41.555Z,10.10
2019-02-26T10:48:09.873Z,10.10
2019-02-26T10:50:41.945Z,10.10
2019-02-26T10:53:13.551Z,10.10
2019-02-26T10:55:43.577Z,10.10
2019-02-26T10:58:13.325Z,10.10
2019-02-26T11:00:43.400Z,10.10
2019-02-26T11:03:14.831Z,10.20
2019-02-26T11:05:45.281Z,10.30
2019-02-26T11:08:14.045Z,10.30
2019-02-26T11:10:52.396Z,10.40
2019-02-26T11:13:50.975Z,10.50
2019-02-26T11:16:45.118Z,10.60
2019-02-26T11:22:39.222Z,10.90
2019-02-26T11:25:14.162Z,11.00
2019-02-26T11:27:45.996Z,11.10
2019-02-26T11:30:23.697Z,11.20
2019-02-26T11:32:56.168Z,11.30
2019-02-26T11:35:24.624Z,11.40
2019-02-26T11:37:55.417Z,11.50
2019-02-26T11:40:28.069Z,11.60
2019-02-26T11:42:56.553Z,11.80
2019-02-26T11:45:25.653Z,11.80
2019-02-26T11:47:55.774Z,11.90
2019-02-26T11:50:28.214Z,12.00
2019-02-26T11:52:57.554Z,12.10
2019-02-26T11:55:31.354Z,12.20
2019-02-26T11:57:57.742Z,12.20
2019-02-26T12:00:39.184Z,12.30
2019-02-26T12:03:07.193Z,12.40
2019-02-26T12:05:38.884Z,12.50
2019-02-26T12:08:07.383Z,12.50
2019-02-26T12:10:37.952Z,12.60
2019-02-26T12:13:07.549Z,12.70
2019-02-26T12:15:39.901Z,12.80
2019-02-26T12:18:07.451Z,12.80
2019-02-26T12:20:38.486Z,12.90
2019-02-26T12:23:08.085Z,13.00
2019-02-26T12:25:38.652Z,13.10
2019-02-26T12:28:10.904Z,13.10
2019-02-26T12:30:41.218Z,13.20
2019-02-26T12:33:12.179Z,13.30
2019-02-26T12:35:40.835Z,13.30
2019-02-26T12:38:18.294Z,13.40
2019-02-26T12:40:46.289Z,13.40
2019-02-26T12:43:16.280Z,13.50
2019-02-26T12:45:43.451Z,13.60
2019-02-26T12:48:15.660Z,13.70
2019-02-26T12:50:43.408Z,13.80
2019-02-26T12:53:15.109Z,13.80
2019-02-26T12:55:43.149Z,13.90
2019-02-26T12:58:15.221Z,13.90
2019-02-26T13:00:43.384Z,14.00
2019-02-26T13:03:15.901Z,14.20
2019-02-26T13:05:45.588Z,14.20
2019-02-26T13:08:17.186Z,14.30
2019-02-26T13:10:47.360Z,14.30
2019-02-26T13:13:16.677Z,14.40
2019-02-26T13:15:46.009Z,14.50
2019-02-26T13:18:15.247Z,14.50
2019-02-26T13:20:44.510Z,14.50
2019-02-26T13:23:20.106Z,14.40
2019-02-26T13:25:47.669Z,14.40
2019-02-26T13:28:16.901Z,14.30
2019-02-26T13:30:46.024Z,14.20
2019-02-26T13:33:17.831Z,14.10
2019-02-26T13:35:50.742Z,14.00
2019-02-26T13:38:17.131Z,13.90
2019-02-26T13:40:46.569Z,13.80
2019-02-26T13:43:15.626Z,13.80
2019-02-26T13:45:45.222Z,13.60
2019-02-26T13:48:14.961Z,13.60
2019-02-26T13:50:44.161Z,13.50
2019-02-26T13:53:13.612Z,13.50
2019-02-26T13:55:42.717Z,13.40
2019-02-26T13:59:09.463Z,13.40
2019-02-26T14:00:43.008Z,13.40
2019-02-26T14:03:12.637Z,13.40
2019-02-26T14:05:41.591Z,13.40
2019-02-26T14:08:10.713Z,13.40
2019-02-26T14:10:39.896Z,13.40
2019-02-26T14:13:08.962Z,13.40
2019-02-26T14:15:38.249Z,13.40
2019-02-26T14:18:07.549Z,13.50
2019-02-26T14:20:36.560Z,13.50
2019-02-26T14:23:05.557Z,13.40
2019-02-26T14:25:34.502Z,13.40
2019-02-26T14:28:03.511Z,13.40
2019-02-26T14:30:32.660Z,13.40
2019-02-26T14:33:01.686Z,13.40
2019-02-26T14:35:30.740Z,13.30
2019-02-26T14:37:59.732Z,13.30
2019-02-26T14:40:28.825Z,13.30
2019-02-26T14:42:57.852Z,13.20
2019-02-26T14:45:29.971Z,13.20
2019-02-26T14:47:59.239Z,13.20
2019-02-26T14:50:28.481Z,13.20
2019-02-26T14:52:59.303Z,13.10
2019-02-26T14:55:30.128Z,13.10
2019-02-26T14:57:59.109Z,13.10
2019-02-26T15:00:30.686Z,13.10
2019-02-26T15:02:59.707Z,13.20
2019-02-26T15:05:28.787Z,13.20
2019-02-26T15:07:57.961Z,13.10
2019-02-26T15:10:27.060Z,13.20
2019-02-26T15:13:35.995Z,13.10
2019-02-26T15:16:05.147Z,13.10
2019-02-26T15:18:35.799Z,13.10
2019-02-26T15:21:05.024Z,13.10
2019-02-26T15:23:34.145Z,13.10
2019-02-26T15:26:03.313Z,13.10
2019-02-26T15:28:32.353Z,13.10
2019-02-26T15:31:01.359Z,13.10
2019-02-26T15:33:30.661Z,13.00
2019-02-26T15:35:59.723Z,13.00
2019-02-26T15:38:28.670Z,13.00
2019-02-26T15:40:57.712Z,12.90
2019-02-26T15:43:26.708Z,12.90
2019-02-26T15:45:57.749Z,12.90
2019-02-26T15:48:26.491Z,12.90
2019-02-26T15:50:55.516Z,12.80
2019-02-26T15:53:24.882Z,12.80
2019-02-26T15:55:54.102Z,12.80
2019-02-26T15:58:23.287Z,12.80
2019-02-26T16:00:52.508Z,12.70
2019-02-26T16:03:21.764Z,12.70
2019-02-26T16:05:51.082Z,12.60
2019-02-26T16:08:20.118Z,12.60
2019-02-26T16:10:49.414Z,12.50
2019-02-26T16:13:18.527Z,12.40
2019-02-26T16:15:47.727Z,12.30
2019-02-26T16:18:17.053Z,12.30
2019-02-26T16:20:46.481Z,12.20
2019-02-26T16:23:15.536Z,12.20
2019-02-26T16:25:44.484Z,12.10
2019-02-26T16:28:13.469Z,12.00
2019-02-26T16:30:42.740Z,11.90
2019-02-26T16:33:13.672Z,11.90
2019-02-26T16:35:42.693Z,11.90
2019-02-26T16:38:13.896Z,11.80
2019-02-26T16:40:42.521Z,11.80
2019-02-26T16:43:11.830Z,11.70
2019-02-26T16:45:40.980Z,11.70
2019-02-26T16:48:10.069Z,11.70
2019-02-26T16:50:39.424Z,11.70
2019-02-26T16:53:08.657Z,11.60
2019-02-26T16:55:37.787Z,11.60
2019-02-26T16:58:07.129Z,11.50
2019-02-26T17:00:36.409Z,11.30
2019-02-26T17:03:05.820Z,11.30
2019-02-26T17:05:35.119Z,11.20
2019-02-26T17:08:04.205Z,11.10
2019-02-26T17:10:33.575Z,11.00
2019-02-26T17:13:03.118Z,10.90
2019-02-26T17:15:33.498Z,10.80
2019-02-26T17:18:02.773Z,10.80
2019-02-26T17:20:31.821Z,10.70
2019-02-26T17:23:00.853Z,10.60
2019-02-26T17:25:30.067Z,10.60
2019-02-26T17:27:59.151Z,10.50
2019-02-26T17:30:28.378Z,10.50
2019-02-26T17:32:57.535Z,10.50
2019-02-26T17:35:28.990Z,10.50
2019-02-26T17:37:57.497Z,10.40
2019-02-26T17:40:27.333Z,10.40
2019-02-26T17:42:56.378Z,10.40
2019-02-26T17:45:34.922Z,10.30
2019-02-26T17:48:05.585Z,10.20
2019-02-26T17:50:39.596Z,10.20
2019-02-26T17:53:08.857Z,10.10
2019-02-26T17:55:38.082Z,10.00
2019-02-26T17:58:09.790Z,10.00
2019-02-26T18:00:39.572Z,9.90
2019-02-26T18:03:08.884Z,9.90
2019-02-26T18:05:50.459Z,9.90
2019-02-26T18:08:08.921Z,9.80
2019-02-26T18:10:39.107Z,9.80
2019-02-26T18:13:08.152Z,9.70
2019-02-26T18:15:37.266Z,9.60
2019-02-26T18:18:06.607Z,9.60
2019-02-26T18:20:35.688Z,9.50
2019-02-26T18:23:04.992Z,9.50
2019-02-26T18:25:34.076Z,9.40
2019-02-26T18:28:03.204Z,9.40
2019-02-26T18:30:32.254Z,9.40
2019-02-26T18:33:01.289Z,9.40
2019-02-26T18:35:30.513Z,9.30
2019-02-26T18:37:59.549Z,9.30
2019-02-26T18:40:29.051Z,9.30
2019-02-26T18:42:58.238Z,9.20
2019-02-26T18:45:31.266Z,9.20
2019-02-26T18:48:00.358Z,9.20
2019-02-26T18:50:29.674Z,9.10
2019-02-26T18:52:59.007Z,9.10
2019-02-26T18:55:32.297Z,9.00
2019-02-26T18:57:59.399Z,9.00
2019-02-26T19:00:32.711Z,9.00
2019-02-26T19:03:01.814Z,9.00
2019-02-26T19:05:31.155Z,9.00
2019-02-26T19:08:00.846Z,8.90
2019-02-26T19:10:29.832Z,8.90
2019-02-26T19:13:02.426Z,8.90
2019-02-26T19:15:31.718Z,8.80
2019-02-26T19:18:02.660Z,8.80
2019-02-26T19:20:39.414Z,8.80
2019-02-26T19:23:08.749Z,8.70
2019-02-26T19:25:41.389Z,8.70
2019-02-26T19:28:09.872Z,8.60
2019-02-26T19:30:39.248Z,8.60
2019-02-26T19:33:08.234Z,8.60
2019-02-26T19:35:40.294Z,8.50
2019-02-26T19:38:08.603Z,8.50
2019-02-26T19:40:43.523Z,8.50
2019-02-26T19:43:12.701Z,8.40
2019-02-26T19:45:44.251Z,8.40
2019-02-26T19:48:12.711Z,8.30
2019-02-26T19:50:45.630Z,8.30
2019-02-26T19:53:12.555Z,8.30
2019-02-26T19:55:43.959Z,8.30
2019-02-26T19:58:13.074Z,8.30
2019-02-26T20:00:42.252Z,8.30
2019-02-26T20:03:11.393Z,8.20
2019-02-26T20:05:41.261Z,8.20
2019-02-26T20:08:10.566Z,8.10
2019-02-26T20:10:39.579Z,8.10
2019-02-26T20:13:12.457Z,8.10
2019-02-26T20:15:39.863Z,8.10
2019-02-26T20:18:19.770Z,8.10
2019-02-26T20:20:41.083Z,8.00
2019-02-26T20:23:10.982Z,8.00
2019-02-26T20:25:42.476Z,8.00
2019-02-26T20:28:11.473Z,7.90
2019-02-26T20:30:40.572Z,7.90
2019-02-26T20:33:09.678Z,7.80
2019-02-26T20:35:38.697Z,7.80
2019-02-26T20:38:07.815Z,7.80
2019-02-26T20:40:37.485Z,7.80
2019-02-26T20:43:06.667Z,7.80
2019-02-26T20:45:35.836Z,7.80
2019-02-26T20:48:05.205Z,7.70
2019-02-26T20:50:34.439Z,7.70
2019-02-26T20:53:05.663Z,7.70
2019-02-26T20:55:34.324Z,7.70
2019-02-26T20:58:03.332Z,7.60
2019-02-26T21:00:32.377Z,7.60
2019-02-26T21:03:01.408Z,7.70
2019-02-26T21:05:30.446Z,7.60
2019-02-26T21:07:59.520Z,7.60
2019-02-26T21:10:28.628Z,7.60
2019-02-26T21:13:01.641Z,7.60
2019-02-26T21:15:28.553Z,7.60
2019-02-26T21:17:58.210Z,7.50
2019-02-26T21:20:27.949Z,7.50
2019-02-26T21:22:57.102Z,7.50
2019-02-26T21:25:26.324Z,7.50
2019-02-26T21:27:55.595Z,7.50
2019-02-26T21:30:25.443Z,7.50
2019-02-26T21:32:57.837Z,7.40
2019-02-26T21:35:25.256Z,7.40
2019-02-26T21:37:54.374Z,7.40
2019-02-26T21:40:23.674Z,7.40
2019-02-26T21:42:52.668Z,7.40
2019-02-26T21:45:21.647Z,7.30
2019-02-26T21:47:50.666Z,7.30
2019-02-26T21:50:22.086Z,7.30
2019-02-26T21:53:05.797Z,7.30
2019-02-26T21:55:21.048Z,7.30
2019-02-26T21:57:50.190Z,7.30
2019-02-26T22:00:21.032Z,7.20
2019-02-26T22:02:52.419Z,7.20
2019-02-26T22:05:20.919Z,7.10
2019-02-26T22:07:52.392Z,7.10
2019-02-26T22:10:21.885Z,7.10
2019-02-26T22:12:56.628Z,7.10
2019-02-26T22:15:24.490Z,7.00
2019-02-26T22:17:57.834Z,7.00
2019-02-26T22:20:35.811Z,7.00
2019-02-26T22:22:55.139Z,7.00
2019-02-26T22:25:24.225Z,7.00
2019-02-26T22:27:53.584Z,6.90
2019-02-26T22:30:22.950Z,6.90
2019-02-26T22:32:51.971Z,6.90
2019-02-26T22:35:25.656Z,6.90
2019-02-26T22:37:52.337Z,6.80
2019-02-26T22:40:22.834Z,6.70
2019-02-26T22:42:52.318Z,6.70
2019-02-26T22:45:22.280Z,6.70
2019-02-26T22:47:51.558Z,6.70
2019-02-26T22:50:20.560Z,6.60
2019-02-26T22:52:49.629Z,6.60
2019-02-26T22:55:18.734Z,6.60
2019-02-26T22:57:48.900Z,6.60
2019-02-26T23:00:54.581Z,6.60
2019-02-26T23:03:23.873Z,6.60
2019-02-26T23:05:52.979Z,6.50
2019-02-26T23:08:22.107Z,6.50
2019-02-26T23:10:51.469Z,6.40
2019-02-26T23:13:21.004Z,6.50
2019-02-26T23:15:50.402Z,6.50
2019-02-26T23:18:20.310Z,6.40
2019-02-26T23:20:49.442Z,6.40
2019-02-26T23:23:21.688Z,6.40
2019-02-26T23:25:49.583Z,6.40
2019-02-26T23:28:21.671Z,6.30
2019-02-26T23:30:49.413Z,6.30
2019-02-26T23:33:18.701Z,6.30
2019-02-26T23:35:47.782Z,6.30
2019-02-26T23:38:16.730Z,6.30
2019-02-26T23:40:45.872Z,6.30
2019-02-26T23:43:14.964Z,6.30
2019-02-26T23:45:47.433Z,6.20
2019-02-26T23:48:16.538Z,6.20
2019-02-26T23:50:47.301Z,6.20
2019-02-26T23:53:16.812Z,6.10
2019-02-26T23:55:47.262Z,6.10
2019-02-26T23:58:17.022Z,6.10
